ESOW/VST METAR and TAF weather

Enter ICAO airport designator
Station Type Date Time Source
ESOW METAR 2019/05/27 08:50 UTC NOAA

ESOW 270850Z AUTO 13004KT 9999 OVC051/// 12/08 Q0999


Station Type Date Time Source
ESOW Decoded METAR 2019/05/27 08:50 UTC NOAA

Vasteras / Hasslo, Sweden (ESOW) 59-35N 016-38E 31M
May 27, 2019 - 04:50 AM EDT / 2019.05.27 0850 UTC
Wind: from the SE (130 degrees) at 5 MPH (4 KT):0
Visibility: greater than 7 mile(s):0
Sky conditions: overcast
Temperature: 53 F (12 C)
Dew Point: 46 F (8 C)
Relative Humidity: 76%
Pressure (altimeter): 29.50 in. Hg (0999 hPa)
ob: ESOW 270850Z AUTO 13004KT 9999 OVC051/// 12/08 Q0999
cycle: 9

Station Type Date Time Source
ESOW TAF 2018/11/18 12:33 UTC NOAA

TAF ESOW 181130Z 1812/1914 02015KT 9999 BKN020
TEMPO 1812/1814 02015G25KT

Example: see airport list